Orbital elements of SL-16 DEB
| Launched | 25 March 1993 |
| Flight ended | – |
| Launch site | Tyuratam Missile and Space Center, Kazakhstan (Also known as Baikonur Cosmodrome) |
| Owner | Commonwealth of Independent States (former USSR) |
| NORAD ID | 22576 |
| Date fetched |
Epoch osculation |
Inc. [°] |
Ecc. | RA asc node [hr] |
Arg Peri. [°] |
Mean anom [°] |
Mean motion [rev/day] |
Abs. mag |
| Date fetched |
Epoch osculation |
Inc. [°] |
Ecc. | RA asc node [hr] |
Arg Peri. [°] |
Mean anom [°] |
Mean motion [rev/day] |
Abs. mag |
| 2026 May 04 17:57 | 2026 Apr 30 15:41:12 | 70.9993 | 0.02014 | 0.4042 | 266.6160 | 110.0779 | 13.73577 | – |
| 2026 May 03 17:57 | 2026 Apr 30 15:41:12 | 70.9993 | 0.02014 | 0.4042 | 266.6160 | 110.0779 | 13.73577 | – |
| 2026 May 02 17:57 | 2026 Apr 30 15:41:12 | 70.9993 | 0.02014 | 0.4042 | 266.6160 | 110.0779 | 13.73577 | – |
| 2026 May 01 17:56 | 2026 Apr 30 15:41:12 | 70.9993 | 0.02014 | 0.4042 | 266.6160 | 110.0779 | 13.73577 | – |
| 2026 Apr 30 17:56 | 2026 Apr 30 15:41:12 | 70.9993 | 0.02014 | 0.4042 | 266.6160 | 110.0779 | 13.73577 | – |
| 2026 Apr 29 17:57 | 2026 Apr 24 09:52:33 | 70.9996 | 0.02015 | 1.2203 | 275.3895 | 110.0779 | 13.73577 | – |
| 2026 Apr 28 17:56 | 2026 Apr 24 09:52:33 | 70.9996 | 0.02015 | 1.2203 | 275.3895 | 110.0779 | 13.73577 | – |
| 2026 Apr 27 17:58 | 2026 Apr 24 09:52:33 | 70.9996 | 0.02015 | 1.2203 | 275.3895 | 110.0779 | 13.73577 | – |
| 2026 Apr 26 17:58 | 2026 Apr 24 09:52:33 | 70.9996 | 0.02015 | 1.2203 | 275.3895 | 110.0779 | 13.73577 | – |
| 2026 Apr 25 17:58 | 2026 Apr 24 09:52:33 | 70.9996 | 0.02015 | 1.2203 | 275.3895 | 110.0779 | 13.73577 | – |
| 2026 Apr 24 17:59 | 2026 Apr 24 09:52:33 | 70.9996 | 0.02015 | 1.2203 | 275.3895 | 110.0779 | 13.73577 | – |
| 2026 Apr 23 17:57 | 2026 Apr 19 13:04:34 | 70.9993 | 0.02015 | 1.8566 | 282.2329 | 110.0779 | 13.73577 | – |
| 2026 Apr 22 17:57 | 2026 Apr 19 13:04:34 | 70.9993 | 0.02015 | 1.8566 | 282.2329 | 110.0779 | 13.73577 | – |
| 2026 Apr 21 17:57 | 2026 Apr 19 13:04:34 | 70.9993 | 0.02015 | 1.8566 | 282.2329 | 110.0779 | 13.73577 | – |
| 2026 Apr 20 17:57 | 2026 Apr 19 13:04:34 | 70.9993 | 0.02015 | 1.8566 | 282.2329 | 110.0779 | 13.73577 | – |
| 2026 Apr 19 17:58 | 2026 Apr 19 13:04:34 | 70.9993 | 0.02015 | 1.8566 | 282.2329 | 110.0779 | 13.73577 | – |
| 2026 Apr 18 17:56 | 2026 Apr 13 06:41:55 | 70.9987 | 0.02014 | 2.6758 | 291.0377 | 110.0779 | 13.73577 | – |
| 2026 Apr 16 17:57 | 2026 Apr 13 06:41:55 | 70.9987 | 0.02014 | 2.6758 | 291.0377 | 110.0779 | 13.73577 | – |
| 2026 Apr 14 17:57 | 2026 Apr 13 06:41:55 | 70.9987 | 0.02014 | 2.6758 | 291.0377 | 110.0779 | 13.73577 | – |
| 2026 Apr 13 17:57 | 2026 Apr 13 06:41:55 | 70.9987 | 0.02014 | 2.6758 | 291.0377 | 110.0779 | 13.73577 | – |
| 2026 Apr 12 17:57 | 2026 Apr 08 07:47:43 | 70.9978 | 0.02014 | 3.3236 | 297.9965 | 110.0779 | 13.73577 | – |
| 2026 Apr 11 17:57 | 2026 Apr 08 07:47:43 | 70.9978 | 0.02014 | 3.3236 | 297.9965 | 110.0779 | 13.73577 | – |
| 2026 Apr 10 17:58 | 2026 Apr 08 07:47:43 | 70.9978 | 0.02014 | 3.3236 | 297.9965 | 110.0779 | 13.73577 | – |
| 2026 Apr 09 18:01 | 2026 Apr 08 07:47:43 | 70.9978 | 0.02014 | 3.3236 | 297.9965 | 110.0779 | 13.73577 | – |
| 2026 Apr 08 17:57 | 2026 Apr 08 07:47:43 | 70.9978 | 0.02014 | 3.3236 | 297.9965 | 110.0779 | 13.73577 | – |
| 2026 Apr 07 17:57 | 2026 Apr 02 08:28:15 | 70.9966 | 0.02013 | 4.1045 | 306.3842 | 110.0779 | 13.73577 | – |